| time (UTC) | temp C | wind direction | speed KPH | gust KPH | rain 1hr cm | rain 24hr cm | rain mn cm | humidity % | barometer mb |
| 20260906234503 | 35 | 198 | 4.8 | 9.7 | 0.00 | 0.00 | 0.00 | 20 | 1016.6 |
| 20260906234024 | 35 | 215 | 4.8 | 12.9 | 0.00 | 0.00 | 0.00 | 20 | 1016.7 |
| 20260906233503 | 34 | 212 | 8.0 | 17.7 | 0.00 | 0.00 | 0.00 | 20 | 1016.7 |
| 20260906233024 | 34 | 210 | 9.7 | 17.7 | 0.00 | 0.00 | 0.00 | 20 | 1016.6 |
| 20260906232503 | 35 | 227 | 8.0 | 11.3 | 0.00 | 0.00 | 0.00 | 20 | 1016.4 |
| 20260906232003 | 35 | 236 | 8.0 | 12.9 | 0.00 | 0.00 | 0.00 | 20 | 1016.4 |
| 20260906231503 | 34 | 210 | 9.7 | 12.9 | 0.00 | 0.00 | 0.00 | 20 | 1016.4 |
| 20260906231003 | 34 | 205 | 11.3 | 14.5 | 0.00 | 0.00 | 0.00 | 20 | 1016.6 |
| 20260906230503 | 34 | 207 | 11.3 | 14.5 | 0.00 | 0.00 | 0.00 | 20 | 1016.6 |
| 20260906230003 | 35 | 131 | 9.7 | 12.9 | 0.00 | 0.00 | 0.00 | 20 | 1016.6 |
| 20260906225503 | 35 | 131 | 9.7 | 12.9 | 0.00 | 0.00 | 0.00 | 20 | 1016.9 |
| 20260906225024 | 35 | 131 | 9.7 | 12.9 | 0.00 | 0.00 | 0.00 | 20 | 1016.8 |
| 20260906224524 | 35 | 131 | 9.7 | 12.9 | 0.00 | 0.00 | 0.00 | 20 | 1016.7 |
| 20260906224003 | 35 | 132 | 9.7 | 12.9 | 0.00 | 0.00 | 0.00 | 20 | 1016.7 |
| 20260906223503 | 35 | 142 | 8.0 | 12.9 | 0.00 | 0.00 | 0.00 | 20 | 1016.8 |
| 20260906223024 | 35 | 175 | 9.7 | 12.9 | 0.00 | 0.00 | 0.00 | 20 | 1016.7 |
| 20260906222524 | 35 | 183 | 11.3 | 16.1 | 0.00 | 0.00 | 0.00 | 20 | 1016.8 |
| 20260906222003 | 35 | 166 | 11.3 | 17.7 | 0.00 | 0.00 | 0.00 | 20 | 1016.8 |
| 20260906221503 | 35 | 115 | 8.0 | 17.7 | 0.00 | 0.00 | 0.00 | 20 | 1016.8 |
| 20260906221003 | 35 | 155 | 9.7 | 16.1 | 0.00 | 0.00 | 0.00 | 19 | 1016.9 |
| 20260906220503 | 35 | 175 | 12.9 | 16.1 | 0.00 | 0.00 | 0.00 | 19 | 1016.9 |
| 20260906220024 | 35 | 193 | 11.3 | 16.1 | 0.00 | 0.00 | 0.00 | 19 | 1017.4 |
| 20260906215524 | 35 | 233 | 9.7 | 16.1 | 0.00 | 0.00 | 0.00 | 19 | 1017.4 |
| 20260906215003 | 35 | 273 | 8.0 | 9.7 | 0.00 | 0.00 | 0.00 | 20 | 1017.5 |
| 20260906214503 | 35 | 271 | 6.4 | 9.7 | 0.00 | 0.00 | 0.00 | 19 | 1017.5 |
| 20260906214003 | 35 | 261 | 6.4 | 6.4 | 0.00 | 0.00 | 0.00 | 19 | 1017.8 |
| 20260906213503 | 35 | 309 | 4.8 | 6.4 | 0.00 | 0.00 | 0.00 | 19 | 1017.6 |
| 20260906213004 | 36 | 334 | 3.2 | 4.8 | 0.00 | 0.00 | 0.00 | 18 | 1017.6 |
| 20260906212524 | 36 | 316 | 3.2 | 4.8 | 0.00 | 0.00 | 0.00 | 18 | 1017.6 |
| 20260906212003 | 35 | 181 | 3.2 | 3.2 | 0.00 | 0.00 | 0.00 | 18 | 1018.0 |
| 20260906211503 | 35 | 198 | 4.8 | 9.7 | 0.00 | 0.00 | 0.00 | 18 | 1018.1 |
| 20260906211003 | 35 | 248 | 6.4 | 9.7 | 0.00 | 0.00 | 0.00 | 18 | 1018.3 |
| 20260906210503 | 35 | 329 | 6.4 | 9.7 | 0.00 | 0.00 | 0.00 | 18 | 1018.3 |
| 20260906210024 | 34 | 325 | 4.8 | 9.7 | 0.00 | 0.00 | 0.00 | 18 | 1018.3 |
| 20260906205524 | 35 | 322 | 4.8 | 6.4 | 0.00 | 0.00 | 0.00 | 17 | 1018.7 |
| 20260906205003 | 35 | 310 | 4.8 | 9.7 | 0.00 | 0.00 | 0.00 | 17 | 1018.5 |
| 20260906204524 | 35 | 292 | 4.8 | 9.7 | 0.00 | 0.00 | 0.00 | 17 | 1018.4 |
| 20260906204003 | 34 | 238 | 1.6 | 3.2 | 0.00 | 0.00 | 0.00 | 17 | 1018.5 |
| 20260906203503 | 34 | 238 | 1.6 | 3.2 | 0.00 | 0.00 | 0.00 | 17 | 1018.7 |
| 20260906203003 | 34 | 238 | 1.6 | 3.2 | 0.00 | 0.00 | 0.00 | 17 | 1018.9 |
| 20260906202503 | 34 | 238 | 1.6 | 3.2 | 0.00 | 0.00 | 0.00 | 17 | 1018.8 |
| 20260906202003 | 34 | 238 | 1.6 | 3.2 | 0.00 | 0.00 | 0.00 | 17 | 1018.9 |
| 20260906201503 | 34 | 238 | 1.6 | 3.2 | 0.00 | 0.00 | 0.00 | 17 | 1019.0 |
| 20260906201003 | 34 | 238 | 1.6 | 3.2 | 0.00 | 0.00 | 0.00 | 17 | 1018.8 |
| 20260906200503 | 34 | 238 | 1.6 | 3.2 | 0.00 | 0.00 | 0.00 | 17 | 1019.0 |
| 20260906200003 | 34 | 238 | 1.6 | 3.2 | 0.00 | 0.00 | 0.00 | 17 | 1019.2 |
| 20260906195503 | 34 | 238 | 1.6 | 3.2 | 0.00 | 0.00 | 0.00 | 17 | 1019.4 |
| 20260906195003 | 34 | 238 | 1.6 | 3.2 | 0.00 | 0.00 | 0.00 | 17 | 1019.4 |
| 20260906194503 | 34 | 239 | 3.2 | 9.7 | 0.00 | 0.00 | 0.00 | 17 | 1019.6 |
| 20260906194004 | 34 | 253 | 4.8 | 11.3 | 0.00 | 0.00 | 0.00 | 17 | 1019.2 |
| 20260906193503 | 34 | 321 | 4.8 | 11.3 | 0.00 | 0.00 | 0.00 | 18 | 1019.6 |
| 20260906193003 | 33 | 341 | 4.8 | 11.3 | 0.00 | 0.00 | 0.00 | 18 | 1019.5 |
| 20260906192503 | 33 | 4 | 3.2 | 9.7 | 0.00 | 0.00 | 0.00 | 18 | 1019.6 |
| 20260906192003 | 33 | 7 | 4.8 | 14.5 | 0.00 | 0.00 | 0.00 | 18 | 1019.6 |
| 20260906191503 | 32 | 5 | 4.8 | 14.5 | 0.00 | 0.00 | 0.00 | 18 | 1019.7 |
| 20260906191004 | 33 | 349 | 4.8 | 12.9 | 0.00 | 0.00 | 0.00 | 19 | 1019.7 |
| 20260906190503 | 33 | 331 | 3.2 | 9.7 | 0.00 | 0.00 | 0.00 | 19 | 1020.1 |
| 20260906190003 | 33 | 332 | 3.2 | 9.7 | 0.00 | 0.00 | 0.00 | 19 | 1020.2 |
| 20260906185503 | 34 | 230 | 3.2 | 9.7 | 0.00 | 0.00 | 0.00 | 18 | 1020.4 |
| 20260906185003 | 33 | 227 | 3.2 | 9.7 | 0.00 | 0.00 | 0.00 | 18 | 1020.4 |
| 20260906184503 | 32 | 297 | 1.6 | 9.7 | 0.00 | 0.00 | 0.00 | 19 | 1020.5 |
| 20260906184003 | 33 | 16 | 1.6 | 4.8 | 0.00 | 0.00 | 0.00 | 19 | 1020.4 |
| 20260906183504 | 32 | 23 | 3.2 | 6.4 | 0.00 | 0.00 | 0.00 | 19 | 1020.4 |
| 20260906183003 | 32 | 42 | 3.2 | 6.4 | 0.00 | 0.00 | 0.00 | 20 | 1020.8 |
| 20260906182503 | 34 | 94 | 3.2 | 11.3 | 0.00 | 0.00 | 0.00 | 18 | 1020.8 |
| 20260906182003 | 33 | 79 | 4.8 | 12.9 | 0.00 | 0.00 | 0.00 | 20 | 1020.9 |
| 20260906181503 | 34 | 71 | 3.2 | 12.9 | 0.00 | 0.00 | 0.00 | 20 | 1020.9 |
| 20260906181024 | 34 | 63 | 3.2 | 6.4 | 0.00 | 0.00 | 0.00 | 21 | 1021.0 |
| 20260906180503 | 33 | 41 | 3.2 | 6.4 | 0.00 | 0.00 | 0.00 | 21 | 1021.1 |
| 20260906180003 | 33 | 44 | 3.2 | 6.4 | 0.00 | 0.00 | 0.00 | 22 | 1021.3 |
| 20260906175524 | 33 | 43 | 3.2 | 9.7 | 0.00 | 0.00 | 0.00 | 23 | 1021.1 |
| 20260906175003 | 32 | 46 | 3.2 | 9.7 | 0.00 | 0.00 | 0.00 | 24 | 1021.0 |
| 20260906174503 | 32 | 35 | 3.2 | 9.7 | 0.00 | 0.00 | 0.00 | 24 | 1021.0 |
| 20260906174003 | 31 | 12 | 4.8 | 11.3 | 0.00 | 0.00 | 0.00 | 25 | 1021.0 |
| 20260906173524 | 31 | 13 | 4.8 | 11.3 | 0.00 | 0.00 | 0.00 | 26 | 1021.3 |
| 20260906173003 | 31 | 9 | 3.2 | 6.4 | 0.00 | 0.00 | 0.00 | 28 | 1021.2 |
| 20260906172524 | 30 | 12 | 3.2 | 9.7 | 0.00 | 0.00 | 0.00 | 28 | 1021.5 |
| 20260906172003 | 30 | 33 | 3.2 | 9.7 | 0.00 | 0.00 | 0.00 | 28 | 1021.7 |
| 20260906171503 | 31 | 55 | 3.2 | 11.3 | 0.00 | 0.00 | 0.00 | 28 | 1021.5 |
| 20260906171024 | 31 | 61 | 3.2 | 11.3 | 0.00 | 0.00 | 0.00 | 28 | 1021.6 |
| 20260906170503 | 32 | 55 | 3.2 | 11.3 | 0.00 | 0.00 | 0.00 | 27 | 1021.7 |
| 20260906170003 | 30 | 29 | 4.8 | 11.3 | 0.00 | 0.00 | 0.00 | 28 | 1021.5 |
| 20260906165525 | 29 | 35 | 4.8 | 11.3 | 0.00 | 0.00 | 0.00 | 29 | 1021.7 |
| 20260906165003 | 30 | 45 | 3.2 | 11.3 | 0.00 | 0.00 | 0.00 | 28 | 1021.7 |
| 20260906164503 | 30 | 21 | 4.8 | 9.7 | 0.00 | 0.00 | 0.00 | 28 | 1021.6 |
| 20260906164003 | 28 | 19 | 4.8 | 11.3 | 0.00 | 0.00 | 0.00 | 30 | 1021.7 |
| 20260906163503 | 28 | 23 | 4.8 | 11.3 | 0.00 | 0.00 | 0.00 | 31 | 1021.8 |
| 20260906163003 | 28 | 23 | 4.8 | 11.3 | 0.00 | 0.00 | 0.00 | 31 | 1021.9 |
| 20260906162503 | 28 | 18 | 4.8 | 9.7 | 0.00 | 0.00 | 0.00 | 31 | 1021.9 |
| 20260906162003 | 28 | 18 | 3.2 | 9.7 | 0.00 | 0.00 | 0.00 | 30 | 1021.7 |
| 20260906161524 | 28 | 34 | 3.2 | 12.9 | 0.00 | 0.00 | 0.00 | 30 | 1021.9 |
| 20260906161003 | 28 | 32 | 4.8 | 12.9 | 0.00 | 0.00 | 0.00 | 31 | 1021.8 |
| 20260906160503 | 28 | 25 | 4.8 | 11.3 | 0.00 | 0.00 | 0.00 | 30 | 1021.9 |
| 20260906160003 | 27 | 36 | 4.8 | 11.3 | 0.00 | 0.00 | 0.00 | 30 | 1022.1 |
| 20260906155504 | 28 | 48 | 4.8 | 11.3 | 0.00 | 0.00 | 0.00 | 29 | 1021.9 |
| 20260906155003 | 28 | 25 | 4.8 | 14.5 | 0.00 | 0.00 | 0.00 | 28 | 1021.9 |
| 20260906154503 | 28 | 26 | 4.8 | 14.5 | 0.00 | 0.00 | 0.00 | 29 | 1022.1 |
| 20260906154003 | 28 | 36 | 4.8 | 14.5 | 0.00 | 0.00 | 0.00 | 29 | 1021.9 |
| 20260906153503 | 27 | 30 | 6.4 | 14.5 | 0.00 | 0.00 | 0.00 | 30 | 1021.9 |
| 20260906153003 | 27 | 24 | 6.4 | 14.5 | 0.00 | 0.00 | 0.00 | 31 | 1021.8 |
| 20260906152503 | 27 | 17 | 8.0 | 14.5 | 0.00 | 0.00 | 0.00 | 31 | 1021.8 |
| 20260906152024 | 26 | 15 | 8.0 | 14.5 | 0.00 | 0.00 | 0.00 | 32 | 1021.7 |
| 20260906151503 | 27 | 9 | 8.0 | 16.1 | 0.00 | 0.00 | 0.00 | 31 | 1021.8 |
| 20260906151024 | 27 | 7 | 8.0 | 16.1 | 0.00 | 0.00 | 0.00 | 31 | 1021.7 |
| 20260906150503 | 26 | 9 | 6.4 | 14.5 | 0.00 | 0.00 | 0.00 | 33 | 1021.7 |
| 20260906150003 | 26 | 9 | 6.4 | 14.5 | 0.00 | 0.00 | 0.00 | 32 | 1021.9 |
| 20260906145503 | 26 | 8 | 4.8 | 11.3 | 0.00 | 0.00 | 0.00 | 31 | 1021.8 |
| 20260906145024 | 26 | 7 | 4.8 | 11.3 | 0.00 | 0.00 | 0.00 | 31 | 1021.8 |
| 20260906144503 | 25 | 2 | 4.8 | 9.7 | 0.00 | 0.00 | 0.00 | 32 | 1021.7 |
| 20260906144003 | 25 | 359 | 3.2 | 9.7 | 0.00 | 0.00 | 0.00 | 32 | 1021.8 |
| 20260906143503 | 25 | 358 | 1.6 | 4.8 | 0.00 | 0.00 | 0.00 | 32 | 1021.9 |
| 20260906143024 | 25 | 355 | 1.6 | 9.7 | 0.00 | 0.00 | 0.00 | 33 | 1021.6 |
| 20260906142503 | 24 | 352 | 1.6 | 9.7 | 0.00 | 0.00 | 0.00 | 33 | 1021.6 |
| 20260906142003 | 25 | 351 | 0.0 | 3.2 | 0.00 | 0.00 | 0.00 | 33 | 1021.8 |
| 20260906141503 | 25 | 351 | 0.0 | 3.2 | 0.00 | 0.00 | 0.00 | 32 | 1021.6 |
| 20260906141003 | 24 | 350 | 1.6 | 3.2 | 0.00 | 0.00 | 0.00 | 35 | 1021.6 |
| 20260906140503 | 23 | 349 | 1.6 | 3.2 | 0.00 | 0.00 | 0.00 | 35 | 1021.9 |
| 20260906140003 | 23 | 347 | 1.6 | 4.8 | 0.00 | 0.00 | 0.00 | 36 | 1021.3 |
| 20260906135503 | 22 | 347 | 1.6 | 4.8 | 0.00 | 0.00 | 0.00 | 37 | 1021.6 |
| 20260906135003 | 22 | 346 | 0.0 | 4.8 | 0.00 | 0.00 | 0.00 | 36 | 1021.3 |
| 20260906134503 | 22 | 346 | 1.6 | 3.2 | 0.00 | 0.00 | 0.00 | 35 | 1021.5 |
| 20260906134003 | 22 | 345 | 1.6 | 3.2 | 0.00 | 0.00 | 0.00 | 35 | 1021.0 |
| 20260906133524 | 22 | 345 | 1.6 | 4.8 | 0.00 | 0.00 | 0.00 | 35 | 1021.1 |
| 20260906133003 | 22 | 345 | 1.6 | 4.8 | 0.00 | 0.00 | 0.00 | 36 | 1021.1 |
| 20260906132503 | 21 | 345 | 1.6 | 6.4 | 0.00 | 0.00 | 0.00 | 36 | 1021.1 |
| 20260906132024 | 21 | 345 | 4.8 | 9.7 | 0.00 | 0.00 | 0.00 | 36 | 1021.1 |
| 20260906131503 | 21 | 345 | 4.8 | 9.7 | 0.00 | 0.00 | 0.00 | 37 | 1021.1 |
| 20260906131003 | 21 | 345 | 3.2 | 6.4 | 0.00 | 0.00 | 0.00 | 37 | 1020.9 |
| 20260906130524 | 21 | 346 | 1.6 | 4.8 | 0.00 | 0.00 | 0.00 | 37 | 1021.0 |
| 20260906130024 | 21 | 346 | 1.6 | 3.2 | 0.00 | 0.00 | 0.00 | 38 | 1021.2 |
| 20260906125503 | 21 | 346 | 3.2 | 6.4 | 0.00 | 0.00 | 0.00 | 39 | 1021.1 |
| 20260906125003 | 21 | 346 | 4.8 | 6.4 | 0.00 | 0.00 | 0.00 | 38 | 1020.9 |
| 20260906124503 | 21 | 346 | 3.2 | 6.4 | 0.00 | 0.00 | 0.00 | 39 | 1020.9 |
| 20260906124003 | 21 | 346 | 3.2 | 4.8 | 0.00 | 0.00 | 0.00 | 40 | 1020.9 |
| 20260906123503 | 21 | 346 | 3.2 | 3.2 | 0.00 | 0.00 | 0.00 | 40 | 1021.0 |
| 20260906123003 | 21 | 346 | 1.6 | 3.2 | 0.00 | 0.00 | 0.00 | 40 | 1020.8 |
| 20260906122503 | 22 | 346 | 1.6 | 3.2 | 0.00 | 0.00 | 0.00 | 38 | 1021.0 |
| 20260906122003 | 21 | 346 | 1.6 | 3.2 | 0.00 | 0.00 | 0.00 | 39 | 1021.1 |
| 20260906121525 | 21 | 346 | 1.6 | 3.2 | 0.00 | 0.00 | 0.00 | 39 | 1020.9 |
| 20260906121003 | 21 | 346 | 0.0 | 1.6 | 0.00 | 0.00 | 0.00 | 40 | 1020.8 |
| 20260906120503 | 21 | 346 | 0.0 | 1.6 | 0.00 | 0.00 | 0.00 | 41 | 1020.9 |
| 20260906120003 | 21 | 0 | 0.0 | 0.0 | 0.00 | 0.00 | 0.00 | 40 | 1020.8 |
| 20260906115503 | 22 | 346 | 1.6 | 3.2 | 0.00 | 0.00 | 0.00 | 39 | 1020.8 |
| 20260906115003 | 22 | 346 | 3.2 | 6.4 | 0.00 | 0.00 | 0.00 | 39 | 1020.6 |
| 20260906114503 | 22 | 346 | 3.2 | 6.4 | 0.00 | 0.00 | 0.00 | 39 | 1020.8 |
| 20260906114003 | 22 | 346 | 1.6 | 4.8 | 0.00 | 0.00 | 0.00 | 39 | 1020.9 |
| 20260906113503 | 22 | 346 | 1.6 | 3.2 | 0.00 | 0.00 | 0.00 | 39 | 1020.9 |
| 20260906113003 | 22 | 346 | 1.6 | 3.2 | 0.00 | 0.00 | 0.00 | 39 | 1020.8 |
| 20260906112504 | 22 | 346 | 1.6 | 3.2 | 0.00 | 0.00 | 0.00 | 39 | 1020.9 |
| 20260906112003 | 22 | 346 | 1.6 | 3.2 | 0.00 | 0.00 | 0.00 | 39 | 1021.1 |
| 20260906111524 | 22 | 346 | 0.0 | 1.6 | 0.00 | 0.00 | 0.00 | 39 | 1021.0 |
| 20260906111003 | 22 | 346 | 0.0 | 1.6 | 0.00 | 0.00 | 0.00 | 39 | 1021.0 |
| 20260906110524 | 22 | 346 | 0.0 | 1.6 | 0.00 | 0.00 | 0.00 | 40 | 1021.0 |
| 20260906110003 | 22 | 346 | 0.0 | 1.6 | 0.00 | 0.00 | 0.00 | 40 | 1020.8 |
| 20260906105503 | 22 | 0 | 0.0 | 0.0 | 0.00 | 0.00 | 0.00 | 41 | 1020.6 |
| 20260906105003 | 22 | 0 | 0.0 | 1.6 | 0.00 | 0.00 | 0.00 | 40 | 1020.8 |
| 20260906104503 | 22 | 345 | 0.0 | 3.2 | 0.00 | 0.00 | 0.00 | 40 | 1020.6 |
| 20260906104024 | 23 | 345 | 0.0 | 3.2 | 0.00 | 0.00 | 0.00 | 39 | 1020.5 |
| 20260906103524 | 23 | 345 | 0.0 | 3.2 | 0.00 | 0.00 | 0.00 | 39 | 1020.6 |
| 20260906103003 | 23 | 345 | 0.0 | 3.2 | 0.00 | 0.00 | 0.00 | 38 | 1020.4 |
| 20260906102503 | 23 | 345 | 1.6 | 3.2 | 0.00 | 0.00 | 0.00 | 35 | 1020.4 |
| 20260906102003 | 23 | 345 | 1.6 | 4.8 | 0.00 | 0.00 | 0.00 | 35 | 1020.4 |
| 20260906101503 | 23 | 345 | 1.6 | 4.8 | 0.00 | 0.00 | 0.00 | 34 | 1020.4 |
| 20260906101003 | 24 | 345 | 1.6 | 3.2 | 0.00 | 0.00 | 0.00 | 34 | 1020.3 |
| 20260906100503 | 24 | 345 | 1.6 | 3.2 | 0.00 | 0.00 | 0.00 | 34 | 1020.5 |
| 20260906100003 | 24 | 345 | 3.2 | 6.4 | 0.00 | 0.00 | 0.00 | 33 | 1020.6 |
| 20260906095503 | 24 | 345 | 3.2 | 6.4 | 0.00 | 0.00 | 0.00 | 33 | 1020.6 |
| 20260906095024 | 24 | 345 | 3.2 | 6.4 | 0.00 | 0.00 | 0.00 | 33 | 1020.3 |
| 20260906094503 | 24 | 342 | 3.2 | 9.7 | 0.00 | 0.00 | 0.00 | 33 | 1020.2 |
| 20260906094003 | 24 | 340 | 4.8 | 11.3 | 0.00 | 0.00 | 0.00 | 33 | 1020.2 |
| 20260906093503 | 25 | 340 | 6.4 | 12.9 | 0.00 | 0.00 | 0.00 | 32 | 1020.4 |
| 20260906093003 | 25 | 339 | 6.4 | 12.9 | 0.00 | 0.00 | 0.00 | 32 | 1020.2 |
| 20260906092503 | 25 | 337 | 8.0 | 12.9 | 0.00 | 0.00 | 0.00 | 32 | 1020.1 |
| 20260906092003 | 25 | 334 | 9.7 | 12.9 | 0.00 | 0.00 | 0.00 | 32 | 1020.1 |
| 20260906091503 | 25 | 333 | 9.7 | 12.9 | 0.00 | 0.00 | 0.00 | 32 | 1020.1 |
| 20260906091003 | 25 | 332 | 9.7 | 12.9 | 0.00 | 0.00 | 0.00 | 32 | 1020.1 |
| 20260906090503 | 25 | 330 | 9.7 | 11.3 | 0.00 | 0.00 | 0.00 | 33 | 1020.1 |
| 20260906090003 | 24 | 330 | 8.0 | 11.3 | 0.00 | 0.00 | 0.00 | 33 | 1019.8 |
| 20260906085503 | 24 | 331 | 8.0 | 11.3 | 0.00 | 0.00 | 0.00 | 33 | 1020.1 |
| 20260906085003 | 25 | 333 | 6.4 | 11.3 | 0.00 | 0.00 | 0.00 | 33 | 1019.9 |
| 20260906084503 | 24 | 333 | 6.4 | 9.7 | 0.00 | 0.00 | 0.00 | 33 | 1020.1 |
| 20260906084003 | 24 | 335 | 8.0 | 9.7 | 0.00 | 0.00 | 0.00 | 34 | 1020.1 |
| 20260906083503 | 25 | 337 | 6.4 | 9.7 | 0.00 | 0.00 | 0.00 | 34 | 1020.1 |
| 20260906083024 | 24 | 338 | 6.4 | 9.7 | 0.00 | 0.00 | 0.00 | 34 | 1020.3 |
| 20260906082503 | 24 | 339 | 6.4 | 9.7 | 0.00 | 0.00 | 0.00 | 34 | 1020.3 |
| 20260906082003 | 24 | 340 | 6.4 | 9.7 | 0.00 | 0.00 | 0.00 | 34 | 1020.1 |
| 20260906081503 | 24 | 340 | 4.8 | 9.7 | 0.00 | 0.00 | 0.00 | 34 | 1020.4 |
| 20260906081003 | 25 | 340 | 6.4 | 9.7 | 0.00 | 0.00 | 0.00 | 34 | 1020.2 |
| 20260906080503 | 25 | 339 | 6.4 | 9.7 | 0.00 | 0.00 | 0.00 | 34 | 1020.4 |
| 20260906080003 | 24 | 338 | 8.0 | 11.3 | 0.00 | 0.00 | 0.00 | 34 | 1020.5 |
| 20260906075503 | 24 | 339 | 8.0 | 12.9 | 0.00 | 0.00 | 0.00 | 34 | 1020.5 |
| 20260906075024 | 25 | 338 | 9.7 | 12.9 | 0.00 | 0.00 | 0.00 | 34 | 1020.8 |
| 20260906074524 | 25 | 334 | 9.7 | 11.3 | 0.00 | 0.00 | 0.00 | 33 | 1020.8 |
| 20260906074003 | 25 | 327 | 8.0 | 11.3 | 0.00 | 0.00 | 0.00 | 34 | 1020.6 |
| 20260906073503 | 24 | 317 | 6.4 | 11.3 | 0.00 | 0.00 | 0.00 | 34 | 1020.5 |
| 20260906073003 | 25 | 311 | 6.4 | 11.3 | 0.00 | 0.00 | 0.00 | 34 | 1020.5 |
| 20260906072503 | 25 | 310 | 6.4 | 11.3 | 0.00 | 0.00 | 0.00 | 34 | 1020.6 |
| 20260906072003 | 25 | 305 | 6.4 | 11.3 | 0.00 | 0.00 | 0.00 | 33 | 1020.5 |
| 20260906071503 | 24 | 294 | 6.4 | 9.7 | 0.00 | 0.00 | 0.00 | 34 | 1020.4 |
| 20260906071003 | 25 | 284 | 3.2 | 6.4 | 0.00 | 0.00 | 0.00 | 34 | 1020.5 |
| 20260906070503 | 25 | 280 | 1.6 | 4.8 | 0.00 | 0.00 | 0.00 | 33 | 1020.9 |
| 20260906070003 | 25 | 275 | 3.2 | 6.4 | 0.00 | 0.00 | 0.00 | 33 | 1020.8 |
| 20260906065503 | 25 | 269 | 3.2 | 6.4 | 0.00 | 0.00 | 0.00 | 34 | 1020.5 |
| 20260906065003 | 25 | 260 | 1.6 | 4.8 | 0.00 | 0.00 | 0.00 | 33 | 1020.6 |
| 20260906064524 | 25 | 253 | 4.8 | 6.4 | 0.00 | 0.00 | 0.00 | 33 | 1020.8 |
| 20260906064003 | 25 | 225 | 4.8 | 6.4 | 0.00 | 0.00 | 0.00 | 33 | 1020.5 |
| 20260906063524 | 25 | 210 | 3.2 | 9.7 | 0.00 | 0.00 | 0.00 | 33 | 1020.6 |
| 20260906063003 | 26 | 291 | 1.6 | 9.7 | 0.00 | 0.00 | 0.00 | 32 | 1020.8 |
| 20260906062503 | 26 | 353 | 1.6 | 3.2 | 0.00 | 0.00 | 0.00 | 32 | 1020.6 |
| 20260906062003 | 26 | 1 | 1.6 | 9.7 | 0.00 | 0.00 | 0.00 | 31 | 1020.5 |
| 20260906061503 | 26 | 4 | 3.2 | 11.3 | 0.00 | 0.00 | 0.00 | 31 | 1020.5 |
| 20260906061003 | 26 | 8 | 1.6 | 11.3 | 0.00 | 0.00 | 0.00 | 31 | 1020.9 |
| 20260906060503 | 26 | 17 | 1.6 | 4.8 | 0.00 | 0.00 | 0.00 | 32 | 1020.4 |
| 20260906060003 | 25 | 15 | 1.6 | 4.8 | 0.00 | 0.00 | 0.00 | 33 | 1020.5 |
| 20260906055524 | 25 | 10 | 3.2 | 4.8 | 0.00 | 0.00 | 0.00 | 32 | 1020.3 |
| 20260906055003 | 25 | 357 | 1.6 | 4.8 | 0.00 | 0.00 | 0.00 | 32 | 1020.2 |
| 20260906054503 | 26 | 349 | 1.6 | 3.2 | 0.00 | 0.00 | 0.00 | 32 | 1020.2 |
| 20260906054003 | 26 | 347 | 4.8 | 11.3 | 0.00 | 0.00 | 0.00 | 31 | 1020.1 |
| 20260906053503 | 26 | 346 | 6.4 | 14.5 | 0.00 | 0.00 | 0.00 | 31 | 1019.9 |
| 20260906053003 | 26 | 343 | 8.0 | 16.1 | 0.00 | 0.00 | 0.00 | 31 | 1020.1 |
| 20260906052503 | 26 | 343 | 9.7 | 17.7 | 0.00 | 0.00 | 0.00 | 31 | 1020.1 |
| 20260906052003 | 26 | 345 | 11.3 | 17.7 | 0.00 | 0.00 | 0.00 | 31 | 1020.1 |
| 20260906051503 | 26 | 346 | 11.3 | 17.7 | 0.00 | 0.00 | 0.00 | 31 | 1019.7 |
| 20260906051003 | 26 | 346 | 11.3 | 17.7 | 0.00 | 0.00 | 0.00 | 31 | 1020.1 |
| 20260906050503 | 26 | 346 | 11.3 | 22.5 | 0.00 | 0.00 | 0.00 | 31 | 1019.8 |
| 20260906050003 | 26 | 346 | 11.3 | 22.5 | 0.00 | 0.00 | 0.00 | 30 | 1019.8 |
| 20260906045503 | 26 | 346 | 9.7 | 16.1 | 0.00 | 0.00 | 0.00 | 31 | 1019.8 |
| 20260906045025 | 26 | 346 | 9.7 | 16.1 | 0.00 | 0.00 | 0.00 | 31 | 1019.9 |
| 20260906044503 | 26 | 344 | 9.7 | 16.1 | 0.00 | 0.00 | 0.00 | 31 | 1020.3 |
| 20260906044024 | 26 | 343 | 11.3 | 17.7 | 0.00 | 0.00 | 0.00 | 31 | 1020.1 |
| 20260906043503 | 26 | 344 | 11.3 | 17.7 | 0.00 | 0.00 | 0.00 | 31 | 1020.1 |
| 20260906043003 | 26 | 343 | 11.3 | 17.7 | 0.00 | 0.00 | 0.00 | 31 | 1020.1 |
| 20260906042503 | 26 | 344 | 11.3 | 17.7 | 0.00 | 0.00 | 0.00 | 31 | 1019.7 |
| 20260906042003 | 26 | 345 | 11.3 | 14.5 | 0.00 | 0.00 | 0.00 | 31 | 1019.9 |
| 20260906041503 | 26 | 344 | 11.3 | 14.5 | 0.00 | 0.00 | 0.00 | 30 | 1019.7 |
| 20260906041003 | 26 | 343 | 11.3 | 14.5 | 0.00 | 0.00 | 0.00 | 31 | 1019.7 |
| 20260906040503 | 26 | 341 | 11.3 | 14.5 | 0.00 | 0.00 | 0.00 | 30 | 1019.8 |
| 20260906040024 | 26 | 341 | 11.3 | 14.5 | 0.00 | 0.00 | 0.00 | 30 | 1019.9 |
| 20260906035503 | 26 | 343 | 9.7 | 12.9 | 0.00 | 0.00 | 0.00 | 30 | 1019.8 |
| 20260906035003 | 26 | 342 | 9.7 | 14.5 | 0.00 | 0.00 | 0.00 | 30 | 1019.9 |
| 20260906034503 | 27 | 340 | 9.7 | 14.5 | 0.00 | 0.00 | 0.00 | 30 | 1020.2 |
| 20260906034004 | 27 | 339 | 9.7 | 12.9 | 0.00 | 0.00 | 0.00 | 30 | 1020.2 |
| 20260906033503 | 27 | 337 | 9.7 | 12.9 | 0.00 | 0.00 | 0.00 | 30 | 1019.8 |
| 20260906033003 | 27 | 337 | 9.7 | 12.9 | 0.00 | 0.00 | 0.00 | 30 | 1020.1 |
| 20260906032524 | 27 | 339 | 9.7 | 12.9 | 0.00 | 0.00 | 0.00 | 30 | 1019.5 |
| 20260906032003 | 27 | 339 | 9.7 | 12.9 | 0.00 | 0.00 | 0.00 | 29 | 1019.4 |
| 20260906031503 | 27 | 339 | 9.7 | 12.9 | 0.00 | 0.00 | 0.00 | 29 | 1019.5 |
| 20260906031003 | 27 | 339 | 9.7 | 14.5 | 0.00 | 0.00 | 0.00 | 29 | 1019.4 |
| 20260906030524 | 27 | 338 | 9.7 | 14.5 | 0.00 | 0.00 | 0.00 | 29 | 1019.2 |
| 20260906030003 | 28 | 339 | 9.7 | 12.9 | 0.00 | 0.00 | 0.00 | 29 | 1019.1 |
| 20260906025503 | 28 | 342 | 9.7 | 12.9 | 0.00 | 0.00 | 0.00 | 28 | 1019.2 |
| 20260906025003 | 28 | 345 | 9.7 | 14.5 | 0.00 | 0.00 | 0.00 | 28 | 1019.4 |
| 20260906024503 | 28 | 344 | 9.7 | 16.1 | 0.00 | 0.00 | 0.00 | 28 | 1019.1 |
| 20260906024003 | 28 | 345 | 11.3 | 17.7 | 0.00 | 0.00 | 0.00 | 28 | 1019.0 |
| 20260906023524 | 29 | 345 | 11.3 | 17.7 | 0.00 | 0.00 | 0.00 | 28 | 1019.1 |
| 20260906023003 | 29 | 338 | 11.3 | 16.1 | 0.00 | 0.00 | 0.00 | 28 | 1018.9 |
| 20260906022503 | 29 | 334 | 11.3 | 14.5 | 0.00 | 0.00 | 0.00 | 28 | 1018.9 |
| 20260906022024 | 30 | 331 | 9.7 | 14.5 | 0.00 | 0.00 | 0.00 | 28 | 1018.9 |
| 20260906021503 | 30 | 331 | 8.0 | 12.9 | 0.00 | 0.00 | 0.00 | 28 | 1019.0 |
| 20260906021003 | 30 | 336 | 6.4 | 9.7 | 0.00 | 0.00 | 0.00 | 28 | 1019.1 |
| 20260906020503 | 30 | 339 | 8.0 | 11.3 | 0.00 | 0.00 | 0.00 | 28 | 1018.9 |
| 20260906020003 | 30 | 336 | 9.7 | 14.5 | 0.00 | 0.00 | 0.00 | 28 | 1018.8 |
| 20260906015503 | 30 | 316 | 8.0 | 14.5 | 0.00 | 0.00 | 0.00 | 28 | 1018.8 |
| 20260906015004 | 30 | 278 | 4.8 | 6.4 | 0.00 | 0.00 | 0.00 | 30 | 1018.8 |
| 20260906014503 | 30 | 269 | 3.2 | 4.8 | 0.00 | 0.00 | 0.00 | 30 | 1018.3 |
| 20260906014003 | 30 | 268 | 3.2 | 4.8 | 0.00 | 0.00 | 0.00 | 30 | 1018.4 |
| 20260906013503 | 30 | 271 | 4.8 | 6.4 | 0.00 | 0.00 | 0.00 | 29 | 1018.4 |
| 20260906013003 | 31 | 276 | 4.8 | 6.4 | 0.00 | 0.00 | 0.00 | 29 | 1018.7 |
| 20260906012503 | 31 | 291 | 4.8 | 6.4 | 0.00 | 0.00 | 0.00 | 29 | 1018.4 |
| 20260906012003 | 31 | 305 | 4.8 | 6.4 | 0.00 | 0.00 | 0.00 | 29 | 1018.5 |
| 20260906011504 | 31 | 311 | 6.4 | 9.7 | 0.00 | 0.00 | 0.00 | 28 | 1018.5 |
| 20260906011003 | 31 | 314 | 4.8 | 9.7 | 0.00 | 0.00 | 0.00 | 28 | 1018.5 |
| 20260906010503 | 31 | 312 | 4.8 | 9.7 | 0.00 | 0.00 | 0.00 | 28 | 1018.5 |
| 20260906010024 | 31 | 313 | 4.8 | 9.7 | 0.00 | 0.00 | 0.00 | 28 | 1018.7 |
| 20260906005503 | 31 | 326 | 4.8 | 11.3 | 0.00 | 0.00 | 0.00 | 28 | 1018.9 |
| 20260906005003 | 32 | 327 | 9.7 | 14.5 | 0.00 | 0.00 | 0.00 | 27 | 1018.8 |
| 20260906004524 | 32 | 327 | 9.7 | 14.5 | 0.00 | 0.00 | 0.00 | 27 | 1018.7 |
| 20260906004003 | 32 | 323 | 9.7 | 16.1 | 0.00 | 0.00 | 0.00 | 27 | 1018.8 |
| 20260906003503 | 32 | 318 | 11.3 | 16.1 | 0.00 | 0.00 | 0.00 | 27 | 1018.7 |
| 20260906003024 | 32 | 322 | 9.7 | 14.5 | 0.00 | 0.00 | 0.00 | 26 | 1018.4 |
| 20260906002524 | 32 | 335 | 11.3 | 16.1 | 0.00 | 0.00 | 0.00 | 27 | 1018.4 |
| 20260906002024 | 32 | 334 | 11.3 | 16.1 | 0.00 | 0.00 | 0.00 | 27 | 1018.5 |
| 20260906001503 | 32 | 331 | 9.7 | 14.5 | 0.00 | 0.00 | 0.00 | 26 | 1018.4 |
| 20260906001004 | 32 | 339 | 8.0 | 16.1 | 0.00 | 0.00 | 0.00 | 26 | 1018.3 |
| 20260906000503 | 33 | 341 | 9.7 | 16.1 | 0.00 | 0.00 | 0.00 | 26 | 1018.5 |
| 20260906000024 | 32 | 327 | 8.0 | 16.1 | 0.00 | 0.00 | 0.00 | 26 | 1018.5 |
| 20260905235503 | 32 | 324 | 6.4 | 11.3 | 0.00 | 0.00 | 0.00 | 26 | 1018.3 |
| 20260905235003 | 33 | 345 | 4.8 | 11.3 | 0.00 | 0.00 | 0.00 | 26 | 1018.4 |